Time;durP1;ratioP1;P1;durP2;ratioP2;P2;SDS_P1;SDS_P2;PMS_P1;PMS_P2;Temp;Humidity;BMP_temperature;BMP_pressure;BME280_temperature;BME280_humidity;BME280_pressure;Samples;Min_cycle;Max_cycle;Signal;HPM_P1;HPM_P2
2021/06/25 00:01:40;;;;;;;19.30;17.40;;;20.00;99.90;;;;;;5093537;28;20225;-80
2021/06/25 00:04:06;;;;;;;20.37;18.53;;;20.00;99.90;;;;;;5094336;28;20786;-80
2021/06/25 00:06:32;;;;;;;21.20;19.33;;;20.00;99.90;;;;;;5092216;28;20560;-80
2021/06/25 00:08:57;;;;;;;19.07;17.37;;;20.00;99.90;;;;;;5088216;28;20177;-80
2021/06/25 00:11:24;;;;;;;20.17;18.20;;;20.00;99.90;;;;;;5073309;28;20181;-82
2021/06/25 00:13:49;;;;;;;18.27;16.57;;;20.00;99.90;;;;;;5073996;28;20695;-80
2021/06/25 00:16:15;;;;;;;19.83;18.07;;;20.00;99.90;;;;;;5074046;28;20419;-80
2021/06/25 00:18:41;;;;;;;19.17;17.47;;;20.00;99.90;;;;;;5073212;28;20260;-80
2021/06/25 00:21:08;;;;;;;19.90;17.80;;;20.00;99.90;;;;;;5074005;28;20640;-80
2021/06/25 00:23:34;;;;;;;20.13;18.23;;;20.00;99.90;;;;;;5074455;28;20540;-80
2021/06/25 00:25:59;;;;;;;21.63;19.27;;;20.00;99.90;;;;;;5094220;28;20402;-80
2021/06/25 00:28:25;;;;;;;20.27;18.47;;;20.00;99.90;;;;;;5093265;28;20435;-81
2021/06/25 00:30:51;;;;;;;20.43;18.50;;;20.00;99.90;;;;;;5093987;28;20187;-80
2021/06/25 00:33:16;;;;;;;21.23;19.13;;;20.00;99.90;;;;;;5093087;28;20203;-80
2021/06/25 00:35:42;;;;;;;22.33;20.23;;;20.00;99.90;;;;;;5093196;28;20193;-80
2021/06/25 00:38:08;;;;;;;19.60;17.80;;;20.00;99.90;;;;;;5093939;28;20168;-81
2021/06/25 00:40:35;;;;;;;20.27;18.27;;;20.00;99.90;;;;;;5073910;28;20419;-80
2021/06/25 00:43:02;;;;;;;20.50;18.70;;;20.00;99.90;;;;;;5073568;28;20177;-80
2021/06/25 00:45:29;;;;;;;21.70;19.60;;;20.00;99.90;;;;;;5072649;28;20860;-81
2021/06/25 00:47:55;;;;;;;19.77;18.10;;;20.00;99.90;;;;;;5073295;28;20423;-80
2021/06/25 00:50:23;;;;;;;21.30;19.40;;;20.00;99.90;;;;;;5073443;28;20753;-81
2021/06/25 00:52:54;;;;;;;24.23;19.53;;;20.00;99.90;;;;;;5073096;28;20193;-80
2021/06/25 00:55:20;;;;;;;20.43;17.90;;;19.90;99.90;;;;;;5055651;28;20423;-80
2021/06/25 00:57:46;;;;;;;18.90;17.00;;;19.90;99.90;;;;;;5072591;28;20490;-80
2021/06/25 01:00:13;;;;;;;20.20;18.33;;;19.90;99.90;;;;;;5073222;28;20484;-81
2021/06/25 01:02:39;;;;;;;19.33;17.40;;;19.80;99.90;;;;;;5072341;28;20539;-80
2021/06/25 01:05:06;;;;;;;19.00;17.07;;;19.80;99.90;;;;;;5072997;28;20396;-81
2021/06/25 01:07:33;;;;;;;20.43;16.87;;;19.70;99.90;;;;;;5072347;28;20537;-81
2021/06/25 01:10:01;;;;;;;21.17;17.80;;;19.60;99.90;;;;;;5072986;28;20430;-81
2021/06/25 01:12:27;;;;;;;20.43;18.53;;;19.60;99.90;;;;;;5072074;28;20443;-83
2021/06/25 01:14:53;;;;;;;20.20;18.40;;;19.50;99.90;;;;;;5072894;28;20414;-80
2021/06/25 01:17:32;;;;;;;21.47;19.40;;;19.50;99.90;;;;;;5055160;28;20887;-80
2021/06/25 01:19:59;;;;;;;22.47;20.27;;;19.40;99.90;;;;;;5072793;28;20458;-81
2021/06/25 01:22:35;;;;;;;22.17;19.20;;;19.40;99.90;;;;;;5072419;28;20472;-85
2021/06/25 01:25:06;;;;;;;21.23;19.20;;;19.40;99.90;;;;;;5070086;28;20897;-81
2021/06/25 01:27:32;;;;;;;20.33;18.37;;;19.40;99.90;;;;;;5092178;28;20802;-81
2021/06/25 01:29:59;;;;;;;22.30;19.93;;;19.40;99.90;;;;;;5093199;28;20760;-80
2021/06/25 01:32:25;;;;;;;21.70;19.67;;;19.40;99.90;;;;;;5092473;28;20917;-86
2021/06/25 01:34:52;;;;;;;21.70;19.60;;;19.40;99.90;;;;;;5090805;28;20419;-80
2021/06/25 01:37:19;;;;;;;23.13;20.73;;;19.30;99.90;;;;;;5092980;28;20472;-80
2021/06/25 01:39:49;;;;;;;21.90;19.70;;;19.30;99.90;;;;;;5073881;28;20414;-79
2021/06/25 01:42:14;;;;;;;19.47;17.67;;;19.30;99.90;;;;;;5092382;28;20921;-80
2021/06/25 01:44:40;;;;;;;22.70;20.50;;;19.30;99.90;;;;;;5073401;28;20457;-80
2021/06/25 01:47:06;;;;;;;23.47;21.00;;;19.40;99.90;;;;;;5092828;28;20400;-78
2021/06/25 01:49:32;;;;;;;24.27;21.50;;;19.30;99.90;;;;;;5064727;28;20641;-80
2021/06/25 01:51:58;;;;;;;23.50;21.10;;;19.30;99.90;;;;;;5071983;28;20447;-79
2021/06/25 01:54:24;;;;;;;21.97;19.97;;;19.30;99.90;;;;;;5072109;28;20826;-78
2021/06/25 01:56:50;;;;;;;21.60;19.37;;;19.30;99.90;;;;;;5071587;28;20246;-79
2021/06/25 01:59:16;;;;;;;22.17;20.00;;;19.40;99.90;;;;;;5072360;28;20248;-79
2021/06/25 02:01:42;;;;;;;23.07;20.97;;;19.40;99.90;;;;;;5071722;28;20175;-80
2021/06/25 02:04:08;;;;;;;23.27;20.90;;;19.40;99.90;;;;;;5072035;28;20403;-81
2021/06/25 02:06:34;;;;;;;23.70;21.30;;;19.30;99.90;;;;;;5071732;28;20803;-79
2021/06/25 02:09:01;;;;;;;22.37;20.13;;;19.40;99.90;;;;;;5081930;28;20418;-79
2021/06/25 02:11:27;;;;;;;22.60;20.50;;;19.40;99.90;;;;;;5092127;28;20176;-86
2021/06/25 02:13:53;;;;;;;23.80;21.30;;;19.40;99.90;;;;;;5091934;28;20935;-79
2021/06/25 02:16:19;;;;;;;23.80;21.40;;;19.40;99.90;;;;;;5092327;28;20410;-79
2021/06/25 02:18:44;;;;;;;21.90;19.80;;;19.30;99.90;;;;;;5071159;28;20165;-79
2021/06/25 02:21:10;;;;;;;23.70;21.30;;;19.30;99.90;;;;;;5054313;28;20616;-79
2021/06/25 02:23:36;;;;;;;22.97;20.73;;;19.30;99.90;;;;;;5071257;28;20176;-79
2021/06/25 02:26:02;;;;;;;23.93;21.50;;;19.40;99.90;;;;;;5072360;28;20173;-79
2021/06/25 02:28:28;;;;;;;23.90;21.60;;;19.40;99.90;;;;;;5071681;28;20400;-85
2021/06/25 02:30:57;;;;;;;25.13;22.53;;;19.40;99.90;;;;;;5071695;28;20407;-79
2021/06/25 02:33:23;;;;;;;25.80;23.30;;;19.30;99.90;;;;;;5078340;28;20301;-79
2021/06/25 02:35:49;;;;;;;24.13;21.73;;;19.30;99.90;;;;;;5091627;28;20913;-79
2021/06/25 02:38:15;;;;;;;23.30;21.00;;;19.30;99.90;;;;;;5092162;28;20172;-79
2021/06/25 02:40:41;;;;;;;22.37;20.27;;;19.30;99.90;;;;;;5087957;28;20414;-79
2021/06/25 02:43:07;;;;;;;23.30;21.00;;;19.30;99.90;;;;;;5071765;28;20250;-78
2021/06/25 02:45:33;;;;;;;22.87;20.60;;;19.20;99.90;;;;;;5070977;28;20942;-80
2021/06/25 02:47:59;;;;;;;24.13;21.83;;;19.20;99.90;;;;;;5057098;28;20570;-79
2021/06/25 02:50:25;;;;;;;24.63;22.20;;;19.10;99.90;;;;;;5091980;28;20528;-79
2021/06/25 02:52:50;;;;;;;24.90;22.30;;;19.10;99.90;;;;;;5091136;28;20211;-79
2021/06/25 02:55:16;;;;;;;24.60;22.03;;;19.00;99.90;;;;;;5092208;28;20198;-79
2021/06/25 02:57:42;;;;;;;25.40;23.00;;;19.00;99.90;;;;;;5095118;28;20172;-78
2021/06/25 03:00:13;;;;;;;24.23;21.80;;;19.00;99.90;;;;;;5095821;28;20446;-79
2021/06/25 03:02:40;;;;;;;25.90;22.80;;;19.00;99.90;;;;;;5093198;28;20563;-80
2021/06/25 03:05:07;;;;;;;24.67;22.20;;;18.90;99.90;;;;;;5075393;28;20413;-80
2021/06/25 03:07:33;;;;;;;26.20;23.30;;;18.90;99.90;;;;;;5088131;28;20414;-84
2021/06/25 03:09:59;;;;;;;25.00;22.40;;;18.80;99.90;;;;;;5098112;28;20791;-81
2021/06/25 03:12:25;;;;;;;24.43;22.03;;;18.80;99.90;;;;;;5092721;28;20252;-81
2021/06/25 03:14:51;;;;;;;25.40;22.93;;;18.80;99.90;;;;;;5077037;28;20200;-80
2021/06/25 03:17:17;;;;;;;25.20;22.70;;;18.80;99.90;;;;;;5090746;28;20414;-80
2021/06/25 03:19:42;;;;;;;25.77;23.07;;;18.80;99.90;;;;;;5094743;28;20173;-80
2021/06/25 03:22:08;;;;;;;26.13;23.43;;;18.80;99.90;;;;;;5095161;28;20188;-80
2021/06/25 03:24:34;;;;;;;25.73;23.10;;;18.80;99.90;;;;;;5094609;28;20173;-80
2021/06/25 03:27:00;;;;;;;24.23;21.83;;;18.80;99.90;;;;;;5083496;28;20423;-79
2021/06/25 03:29:26;;;;;;;26.57;23.77;;;18.70;99.90;;;;;;5074943;28;20490;-81
2021/06/25 03:31:52;;;;;;;27.30;24.40;;;18.70;99.90;;;;;;5074076;28;20923;-80
2021/06/25 03:34:18;;;;;;;27.13;24.33;;;18.70;99.90;;;;;;5075014;28;20189;-79
2021/06/25 03:36:43;;;;;;;25.40;22.63;;;18.60;99.90;;;;;;5073735;28;20184;-79
2021/06/25 03:39:09;;;;;;;27.90;25.10;;;18.60;99.90;;;;;;5074345;28;20181;-80
2021/06/25 03:41:35;;;;;;;25.00;22.50;;;18.60;99.90;;;;;;5084334;28;20241;-80
2021/06/25 03:44:01;;;;;;;29.73;24.50;;;18.60;99.90;;;;;;5095172;28;20184;-78
2021/06/25 03:46:26;;;;;;;27.30;24.40;;;18.60;99.90;;;;;;5094875;28;20180;-80
2021/06/25 03:48:52;;;;;;;30.33;27.07;;;18.60;99.90;;;;;;5094166;28;20620;-80
2021/06/25 03:51:19;;;;;;;30.43;27.33;;;18.60;99.90;;;;;;5094875;28;20177;-80
2021/06/25 03:53:45;;;;;;;27.23;24.33;;;18.60;99.90;;;;;;5093859;28;20243;-80
2021/06/25 03:56:11;;;;;;;26.83;23.90;;;18.60;99.90;;;;;;5093056;28;20853;-80
2021/06/25 03:58:42;;;;;;;25.87;22.80;;;18.60;99.90;;;;;;5093887;28;20172;-80
2021/06/25 04:01:09;;;;;;;26.47;23.13;;;18.60;99.90;;;;;;5094772;28;20395;-80
2021/06/25 04:03:35;;;;;;;25.50;22.80;;;18.60;99.90;;;;;;5094067;28;20429;-85
2021/06/25 04:06:01;;;;;;;26.77;23.10;;;18.50;99.90;;;;;;5076424;28;20414;-80
2021/06/25 04:08:29;;;;;;;26.00;23.13;;;18.50;99.90;;;;;;5094497;28;20402;-80
2021/06/25 04:10:56;;;;;;;27.50;24.60;;;18.50;99.90;;;;;;5092670;28;20402;-79
2021/06/25 04:13:22;;;;;;;29.90;26.70;;;18.50;99.90;;;;;;5094482;28;21022;-80
2021/06/25 04:15:48;;;;;;;29.13;24.40;;;18.50;99.90;;;;;;5093531;28;20500;-80
2021/06/25 04:18:14;;;;;;;26.17;23.50;;;18.50;99.90;;;;;;5076171;28;20463;-79
2021/06/25 04:20:41;;;;;;;29.63;25.47;;;18.50;99.90;;;;;;5075506;28;20169;-80
2021/06/25 04:23:06;;;;;;;30.30;26.63;;;18.40;99.90;;;;;;5076074;28;20422;-80
2021/06/25 04:25:33;;;;;;;30.50;26.13;;;18.40;99.90;;;;;;5079555;28;20415;-80
2021/06/25 04:27:58;;;;;;;28.80;25.73;;;18.50;99.90;;;;;;5099187;28;20616;-80
2021/06/25 04:30:24;;;;;;;28.77;25.67;;;18.50;99.90;;;;;;5094679;28;20455;-80
2021/06/25 04:32:50;;;;;;;27.67;24.80;;;18.50;99.90;;;;;;5076975;28;20667;-80
2021/06/25 04:35:15;;;;;;;29.83;25.50;;;18.50;99.90;;;;;;5056261;28;20189;-80
2021/06/25 04:37:41;;;;;;;29.13;26.00;;;18.50;99.90;;;;;;5073227;28;20169;-80
2021/06/25 04:40:08;;;;;;;28.57;25.47;;;18.50;99.90;;;;;;5086203;28;20177;-79
2021/06/25 04:42:34;;;;;;;27.40;24.40;;;18.60;99.90;;;;;;5075879;28;20168;-88
2021/06/25 04:45:00;;;;;;;29.97;24.87;;;18.60;99.90;;;;;;5093862;28;20533;-80
2021/06/25 04:47:26;;;;;;;26.23;23.53;;;18.60;99.90;;;;;;5093768;28;20414;-80
2021/06/25 04:49:52;;;;;;;27.83;25.00;;;18.70;99.90;;;;;;5093493;28;20183;-80
2021/06/25 04:52:17;;;;;;;28.83;25.67;;;18.70;99.90;;;;;;5093494;28;20513;-80
2021/06/25 04:54:43;;;;;;;27.30;24.50;;;18.70;99.90;;;;;;5091638;28;20625;-81
2021/06/25 04:57:09;;;;;;;27.10;24.10;;;18.80;99.90;;;;;;5092723;28;20595;-80
2021/06/25 04:59:35;;;;;;;27.37;24.57;;;18.80;99.90;;;;;;5092004;28;20620;-87
2021/06/25 05:02:00;;;;;;;28.20;25.40;;;18.80;99.90;;;;;;5092424;28;20178;-80
2021/06/25 05:04:26;;;;;;;30.57;24.50;;;18.80;99.90;;;;;;5093282;28;20511;-80
2021/06/25 05:06:52;;;;;;;25.97;23.23;;;18.80;99.90;;;;;;5091961;28;20180;-79
2021/06/25 05:09:17;;;;;;;25.60;23.07;;;18.80;99.90;;;;;;5090782;28;20616;-80
2021/06/25 05:11:43;;;;;;;31.63;26.60;;;18.80;99.90;;;;;;5082584;28;20196;-80
2021/06/25 05:14:09;;;;;;;28.37;22.97;;;18.70;99.90;;;;;;5083950;28;20649;-80
2021/06/25 05:16:36;;;;;;;29.83;24.13;;;18.80;99.60;;;;;;5072416;28;20917;-82
2021/06/25 05:19:02;;;;;;;27.00;24.10;;;18.90;99.50;;;;;;5071957;28;20283;-82
2021/06/25 05:21:28;;;;;;;27.20;24.60;;;18.80;99.40;;;;;;5095463;28;20864;-80
2021/06/25 05:23:54;;;;;;;25.27;22.77;;;18.80;99.30;;;;;;5087389;28;20430;-81
2021/06/25 05:26:21;;;;;;;28.10;21.47;;;18.80;99.40;;;;;;5086598;28;20427;-82
2021/06/25 05:28:47;;;;;;;24.57;21.60;;;18.80;99.10;;;;;;5087079;28;20460;-80
2021/06/25 05:31:13;;;;;;;24.37;21.80;;;18.80;99.40;;;;;;5076894;28;20502;-81
2021/06/25 05:33:39;;;;;;;24.03;21.50;;;18.90;99.30;;;;;;5059829;28;20542;-88
2021/06/25 05:36:05;;;;;;;26.67;23.27;;;18.90;98.90;;;;;;5092666;28;20627;-82
2021/06/25 05:38:31;;;;;;;23.23;20.90;;;18.90;98.40;;;;;;5091358;28;20180;-81
2021/06/25 05:40:56;;;;;;;26.00;22.07;;;18.90;98.20;;;;;;5091541;28;20407;-81
2021/06/25 05:43:22;;;;;;;30.80;24.70;;;18.90;98.90;;;;;;5092609;28;20184;-81
2021/06/25 05:45:48;;;;;;;25.93;21.97;;;18.90;98.20;;;;;;5072887;28;20242;-82
2021/06/25 05:48:14;;;;;;;26.27;23.23;;;18.90;98.10;;;;;;5091996;28;20467;-81
2021/06/25 05:50:40;;;;;;;27.13;24.43;;;19.00;98.80;;;;;;5090548;28;20179;-86
2021/06/25 05:53:06;;;;;;;28.80;26.00;;;19.00;98.60;;;;;;5091620;28;20215;-81
2021/06/25 05:55:32;;;;;;;29.57;23.20;;;19.00;98.30;;;;;;5091473;28;20914;-81
2021/06/25 05:57:58;;;;;;;27.50;21.30;;;19.00;98.80;;;;;;5091684;28;20414;-80
2021/06/25 06:00:24;;;;;;;27.03;24.07;;;19.00;99.20;;;;;;5091555;28;20990;-81
2021/06/25 06:02:49;;;;;;;25.87;23.00;;;19.10;99.30;;;;;;5091570;28;20300;-81
2021/06/25 06:05:15;;;;;;;29.80;25.00;;;19.10;99.90;;;;;;5091980;28;20172;-81
2021/06/25 06:07:41;;;;;;;24.80;22.07;;;19.10;99.00;;;;;;5091570;28;20176;-81
2021/06/25 06:10:09;;;;;;;33.00;25.00;;;19.10;99.70;;;;;;5092145;28;20951;-81
2021/06/25 06:12:35;;;;;;;27.40;23.77;;;19.20;99.10;;;;;;5073960;28;20221;-80
2021/06/25 06:15:01;;;;;;;31.33;25.07;;;19.10;98.10;;;;;;5091085;28;20509;-84
2021/06/25 06:17:27;;;;;;;33.50;25.50;;;19.20;98.90;;;;;;5091419;28;20453;-81
2021/06/25 06:19:54;;;;;;;29.77;24.90;;;19.20;98.50;;;;;;5091225;28;20418;-81
2021/06/25 06:36:29;;;;;;;28.17;25.00;;;20.30;99.50;;;;;;5081001;28;20453;-82
2021/06/25 06:39:06;;;;;;;28.30;24.93;;;20.50;98.00;;;;;;5073835;28;20734;-80
2021/06/25 06:41:34;;;;;;;27.73;24.17;;;20.20;97.70;;;;;;5074706;28;20756;-79
2021/06/25 06:46:39;;;;;;;32.20;27.63;;;20.40;99.10;;;;;;5114768;27;20276;-89
2021/06/25 06:49:06;;;;;;;31.63;26.97;;;20.40;96.30;;;;;;5101105;28;20437;-80
2021/06/25 06:51:32;;;;;;;31.97;28.60;;;20.10;96.90;;;;;;5103277;28;20175;-80
2021/06/25 06:54:00;;;;;;;28.93;25.87;;;20.10;97.30;;;;;;5102426;28;20413;-80
2021/06/25 06:56:26;;;;;;;31.33;27.73;;;20.20;98.40;;;;;;5100970;28;20449;-80
2021/06/25 06:58:53;;;;;;;31.20;26.00;;;20.30;97.30;;;;;;5087577;28;20421;-81
2021/06/25 07:01:20;;;;;;;28.53;25.53;;;20.20;96.60;;;;;;5109293;28;20506;-80
2021/06/25 07:03:47;;;;;;;28.00;24.80;;;20.30;98.10;;;;;;5097454;28;20418;-80
2021/06/25 07:06:14;;;;;;;31.80;28.07;;;20.40;96.20;;;;;;5087497;28;20499;-79
2021/06/25 07:08:39;;;;;;;28.47;25.50;;;20.50;96.20;;;;;;5093706;28;20490;-79
2021/06/25 07:11:05;;;;;;;29.60;26.43;;;20.50;96.00;;;;;;5108322;28;20422;-78
2021/06/25 07:13:31;;;;;;;31.60;25.10;;;20.60;95.80;;;;;;5109556;28;20417;-78
2021/06/25 07:15:57;;;;;;;27.80;24.83;;;20.70;95.90;;;;;;5101391;28;20190;-79
2021/06/25 07:18:26;;;;;;;28.83;25.70;;;20.80;96.30;;;;;;5109522;28;20212;-82
2021/06/25 07:20:52;;;;;;;28.63;25.57;;;20.90;96.90;;;;;;5105902;28;20503;-83
2021/06/25 07:23:19;;;;;;;21.83;19.60;;;21.00;95.30;;;;;;5071768;28;20472;-80
2021/06/25 07:25:45;;;;;;;18.93;17.00;;;21.00;94.80;;;;;;5098486;28;20219;-87
2021/06/25 07:28:11;;;;;;;24.60;18.10;;;21.10;94.40;;;;;;5102652;28;20446;-80
2021/06/25 07:30:37;;;;;;;21.83;19.60;;;21.10;93.00;;;;;;5109064;28;20479;-79
2021/06/25 07:33:03;;;;;;;19.73;17.70;;;21.10;92.00;;;;;;5108682;28;20765;-78
2021/06/25 07:35:29;;;;;;;16.07;13.87;;;21.10;90.70;;;;;;5109787;28;20436;-78
2021/06/25 07:37:55;;;;;;;15.83;14.13;;;21.10;89.50;;;;;;5109085;28;20394;-82
2021/06/25 07:40:27;;;;;;;12.30;11.13;;;21.10;87.50;;;;;;5089037;28;20184;-78
2021/06/25 07:42:53;;;;;;;10.70;9.80;;;21.10;83.60;;;;;;5104880;28;20426;-79
2021/06/25 07:45:19;;;;;;;11.10;9.77;;;21.00;77.30;;;;;;5100023;28;20481;-78
2021/06/25 07:47:45;;;;;;;9.90;9.10;;;21.00;71.90;;;;;;5088614;28;20191;-79
2021/06/25 07:50:15;;;;;;;10.20;9.30;;;21.00;71.20;;;;;;5088812;28;20202;-78
2021/06/25 07:52:42;;;;;;;9.63;8.70;;;21.00;71.90;;;;;;5088714;28;20489;-79
2021/06/25 07:55:10;;;;;;;8.80;7.90;;;21.10;69.70;;;;;;5085662;28;20429;-80
2021/06/25 07:57:36;;;;;;;9.97;9.17;;;21.10;70.20;;;;;;5061885;28;20420;-79
2021/06/25 08:00:07;;;;;;;8.87;8.20;;;21.20;68.50;;;;;;5062854;28;20420;-80
2021/06/25 08:02:32;;;;;;;7.53;6.83;;;21.30;69.30;;;;;;5074795;28;20172;-80
2021/06/25 08:04:58;;;;;;;8.60;8.00;;;21.40;69.40;;;;;;5073652;28;20467;-81
2021/06/25 08:07:24;;;;;;;8.47;7.70;;;21.40;67.10;;;;;;5074629;28;20196;-79
2021/06/25 08:09:49;;;;;;;9.20;8.40;;;21.50;67.70;;;;;;5068998;28;20184;-77
2021/06/25 08:12:15;;;;;;;7.90;7.30;;;21.50;67.60;;;;;;5070675;28;20173;-80
2021/06/25 08:14:41;;;;;;;9.03;8.30;;;21.60;71.10;;;;;;5073117;28;20193;-79
2021/06/25 08:17:07;;;;;;;10.33;9.53;;;21.70;70.80;;;;;;5068515;28;20606;-78
2021/06/25 08:19:34;;;;;;;10.90;8.87;;;21.70;70.70;;;;;;5055045;28;20182;-77
2021/06/25 08:22:00;;;;;;;9.97;8.97;;;21.80;71.30;;;;;;5054114;28;20392;-77
2021/06/25 08:24:26;;;;;;;9.33;8.63;;;21.90;72.20;;;;;;5055591;28;20948;-77
2021/06/25 08:26:52;;;;;;;12.50;11.50;;;22.00;74.70;;;;;;5074337;28;20438;-77
2021/06/25 08:29:18;;;;;;;9.93;9.23;;;22.00;72.90;;;;;;5073668;28;20519;-78
2021/06/25 08:31:44;;;;;;;10.60;9.70;;;22.00;72.30;;;;;;5074672;28;20426;-78
2021/06/25 08:34:11;;;;;;;10.17;9.37;;;22.00;74.00;;;;;;5073506;28;20523;-77
2021/06/25 08:36:38;;;;;;;11.27;10.37;;;22.10;75.10;;;;;;5073833;28;20473;-78
2021/06/25 08:39:05;;;;;;;10.20;9.30;;;22.20;74.60;;;;;;5073879;28;20418;-79
2021/06/25 08:41:33;;;;;;;10.43;9.73;;;22.30;74.40;;;;;;5056708;28;20400;-78
2021/06/25 08:43:59;;;;;;;10.30;9.40;;;22.30;74.70;;;;;;5073177;28;20443;-78
2021/06/25 08:46:24;;;;;;;9.20;8.50;;;22.40;75.00;;;;;;5063277;28;20896;-79
2021/06/25 08:48:53;;;;;;;11.63;10.60;;;22.40;76.80;;;;;;5074091;28;20544;-84
2021/06/25 08:51:19;;;;;;;10.83;9.80;;;22.40;75.30;;;;;;5074500;28;20243;-79
2021/06/25 08:53:45;;;;;;;11.43;10.10;;;22.40;75.80;;;;;;5074339;28;20739;-79
2021/06/25 08:56:11;;;;;;;11.00;10.00;;;22.40;75.50;;;;;;5073895;28;20476;-79
2021/06/25 08:58:36;;;;;;;11.40;10.60;;;22.30;74.50;;;;;;5056455;28;20196;-77
2021/06/25 09:01:02;;;;;;;10.43;9.50;;;22.20;75.50;;;;;;5073899;28;20181;-79
2021/06/25 09:03:33;;;;;;;10.67;9.70;;;22.20;76.60;;;;;;5074003;28;20173;-79
2021/06/25 09:06:14;;;;;;;10.60;9.63;;;22.30;77.80;;;;;;5073907;28;20212;-80
2021/06/25 09:08:40;;;;;;;12.30;11.40;;;22.40;77.80;;;;;;5073056;28;20413;-77
2021/06/25 09:11:24;;;;;;;11.87;10.87;;;22.50;77.90;;;;;;5073338;28;20396;-78
2021/06/25 09:13:58;;;;;;;11.70;10.50;;;22.60;81.30;;;;;;5073429;28;20410;-80
2021/06/25 09:16:33;;;;;;;12.90;11.80;;;22.70;79.80;;;;;;5074103;28;20421;-78
2021/06/25 09:19:07;;;;;;;10.90;9.90;;;22.80;79.10;;;;;;5073329;28;20396;-80
2021/06/25 09:21:41;;;;;;;12.03;11.03;;;22.90;79.50;;;;;;5073529;28;20414;-79
2021/06/25 09:24:17;;;;;;;11.90;10.90;;;22.90;78.10;;;;;;5073402;28;20407;-80
2021/06/25 09:26:42;;;;;;;13.67;12.47;;;23.00;81.00;;;;;;5073724;28;20410;-79
2021/06/25 09:29:23;;;;;;;13.77;12.57;;;23.10;82.50;;;;;;5073041;28;20903;-80
2021/06/25 09:32:04;;;;;;;13.97;12.80;;;23.20;79.00;;;;;;5073904;28;20192;-79
2021/06/25 09:34:40;;;;;;;14.20;13.00;;;23.30;79.00;;;;;;5073659;28;20388;-79
2021/06/25 09:37:09;;;;;;;13.50;12.30;;;23.30;82.10;;;;;;5072732;28;20419;-79
2021/06/25 09:39:35;;;;;;;14.43;13.13;;;23.30;80.50;;;;;;5073092;28;20422;-79
2021/06/25 09:42:01;;;;;;;15.17;13.80;;;23.20;80.30;;;;;;5072878;28;20407;-79
2021/06/25 09:44:27;;;;;;;15.57;14.27;;;23.20;79.70;;;;;;5073065;28;20180;-80
2021/06/25 09:46:54;;;;;;;14.40;13.20;;;23.20;81.50;;;;;;5073036;28;20422;-80
2021/06/25 09:49:29;;;;;;;15.33;13.77;;;23.20;81.90;;;;;;5072710;28;20175;-79
2021/06/25 09:51:56;;;;;;;14.20;13.00;;;23.20;80.20;;;;;;5072047;28;20423;-84
2021/06/25 09:54:24;;;;;;;16.77;15.07;;;23.20;81.80;;;;;;5073178;28;20427;-80
2021/06/25 10:01:51;;;;;;;14.73;13.33;;;23.30;80.50;;;;;;5072575;28;20403;-87
2021/06/25 10:04:33;;;;;;;15.10;13.90;;;23.30;80.50;;;;;;5072347;28;20415;-77
2021/06/25 10:07:17;;;;;;;15.90;14.40;;;23.40;81.30;;;;;;5071477;28;20173;-76
2021/06/25 10:09:45;;;;;;;14.97;13.60;;;23.50;79.20;;;;;;5065362;28;20415;-75
2021/06/25 10:12:12;;;;;;;17.73;16.23;;;23.40;79.90;;;;;;5060212;28;20470;-74
2021/06/25 10:14:39;;;;;;;16.83;15.40;;;23.50;79.80;;;;;;5068359;28;20430;-76
2021/06/25 10:17:08;;;;;;;14.70;13.30;;;23.50;78.90;;;;;;5072297;28;20427;-76
2021/06/25 10:19:45;;;;;;;14.70;13.57;;;23.40;78.20;;;;;;5072349;28;20481;-75
2021/06/25 10:22:13;;;;;;;15.20;13.80;;;23.50;78.70;;;;;;5071715;28;20403;-76
2021/06/25 10:24:42;;;;;;;15.03;13.60;;;23.50;79.50;;;;;;5070269;28;20446;-77
2021/06/25 10:27:08;;;;;;;14.60;13.30;;;23.60;78.60;;;;;;5054131;28;20431;-75
2021/06/25 10:29:35;;;;;;;16.00;14.57;;;23.70;78.70;;;;;;5059795;28;20420;-77
2021/06/25 10:32:03;;;;;;;16.50;15.00;;;23.80;77.80;;;;;;5058492;28;20838;-76
2021/06/25 10:34:33;;;;;;;15.10;13.60;;;23.80;76.90;;;;;;5067566;28;20443;-75
2021/06/25 10:37:03;;;;;;;14.87;13.57;;;23.80;77.70;;;;;;5073312;28;20404;-77
2021/06/25 10:39:32;;;;;;;15.07;13.53;;;23.80;79.90;;;;;;5071640;28;20426;-75
2021/06/25 10:42:00;;;;;;;15.53;14.00;;;23.80;80.70;;;;;;5051410;28;20507;-75
2021/06/25 10:44:35;;;;;;;15.17;13.67;;;23.90;81.60;;;;;;5063292;28;20848;-73
2021/06/25 10:47:16;;;;;;;14.03;12.70;;;24.00;81.10;;;;;;5071243;28;20425;-76
2021/06/25 10:50:02;;;;;;;17.90;16.40;;;24.10;79.30;;;;;;5072116;28;20888;-75
2021/06/25 10:52:30;;;;;;;15.60;14.20;;;24.00;74.40;;;;;;5052388;28;20415;-75
2021/06/25 10:55:12;;;;;;;15.40;14.20;;;24.00;75.00;;;;;;5061372;28;20510;-76
2021/06/25 10:57:58;;;;;;;15.80;14.50;;;23.90;77.30;;;;;;5071794;28;20419;-75
2021/06/25 11:00:39;;;;;;;17.13;15.80;;;23.80;76.80;;;;;;5039613;28;20430;-75
2021/06/25 11:03:06;;;;;;;14.27;13.17;;;23.70;77.80;;;;;;5071062;28;20477;-75
2021/06/25 11:05:35;;;;;;;15.37;13.97;;;23.60;76.60;;;;;;5072215;28;20491;-76
2021/06/25 11:08:16;;;;;;;14.60;13.20;;;23.50;79.50;;;;;;5071583;28;20412;-76
2021/06/25 11:10:56;;;;;;;15.10;13.63;;;23.50;80.20;;;;;;5072259;28;20494;-75
2021/06/25 11:13:25;;;;;;;14.77;13.27;;;23.60;79.90;;;;;;5072544;28;20409;-75
2021/06/25 11:15:53;;;;;;;15.77;14.37;;;23.80;80.50;;;;;;5072355;28;20514;-76
2021/06/25 11:18:20;;;;;;;17.10;15.40;;;24.00;81.20;;;;;;5071663;28;20407;-75
2021/06/25 11:20:55;;;;;;;14.63;13.33;;;24.10;80.00;;;;;;5072161;28;20510;-76
2021/06/25 11:23:39;;;;;;;14.63;13.53;;;24.10;80.70;;;;;;5072127;28;20419;-76
2021/06/25 11:26:24;;;;;;;16.50;15.10;;;24.00;80.50;;;;;;5071413;28;20544;-73
2021/06/25 11:28:52;;;;;;;15.10;13.90;;;23.90;77.80;;;;;;5071934;28;20408;-75
2021/06/25 11:31:25;;;;;;;15.60;14.10;;;23.90;78.80;;;;;;5071744;28;20439;-75
2021/06/25 11:34:03;;;;;;;16.23;14.83;;;23.90;81.20;;;;;;5058227;28;20398;-75
2021/06/25 11:36:51;;;;;;;17.90;16.30;;;24.10;83.60;;;;;;5075878;28;20441;-78
2021/06/25 11:39:17;;;;;;;17.60;16.03;;;24.30;78.80;;;;;;5074660;28;20486;-76
2021/06/25 11:42:01;;;;;;;18.23;16.53;;;24.30;79.50;;;;;;5075202;28;20444;-75
2021/06/25 11:44:34;;;;;;;16.30;14.80;;;24.40;79.50;;;;;;5075271;28;20230;-76
2021/06/25 11:47:05;;;;;;;16.20;14.80;;;24.50;83.00;;;;;;5075092;28;20496;-77
2021/06/25 11:49:39;;;;;;;17.47;15.80;;;24.60;84.50;;;;;;5075726;28;20392;-74
2021/06/25 11:52:19;;;;;;;15.70;14.43;;;24.80;79.80;;;;;;5074881;28;20407;-75
2021/06/25 11:54:53;;;;;;;15.30;13.83;;;25.10;84.10;;;;;;5075022;28;20399;-75
2021/06/25 11:57:23;;;;;;;16.40;15.00;;;25.20;79.00;;;;;;5074240;28;20413;-75
2021/06/25 12:00:18;;;;;;;16.90;15.40;;;25.30;77.30;;;;;;5057780;28;20418;-74
2021/06/25 12:02:50;;;;;;;17.10;15.60;;;25.30;77.20;;;;;;5075684;28;20775;-74
2021/06/25 12:05:25;;;;;;;17.10;15.40;;;25.20;77.20;;;;;;5056197;28;20457;-76
2021/06/25 12:08:05;;;;;;;14.50;13.30;;;25.00;76.80;;;;;;5075036;28;20418;-75
2021/06/25 12:10:31;;;;;;;14.37;13.10;;;25.00;79.60;;;;;;5074859;28;20423;-75
2021/06/25 12:12:59;;;;;;;16.00;14.60;;;24.90;76.30;;;;;;5075040;28;20794;-75
2021/06/25 12:15:27;;;;;;;16.40;14.90;;;24.90;75.00;;;;;;5075287;28;20416;-76
2021/06/25 12:17:55;;;;;;;15.30;13.70;;;24.80;74.70;;;;;;5074907;28;20460;-74
2021/06/25 12:20:30;;;;;;;15.00;13.60;;;24.70;76.90;;;;;;5074275;28;20415;-75
2021/06/25 12:22:56;;;;;;;14.70;13.40;;;24.70;79.90;;;;;;5075113;28;20831;-75
2021/06/25 12:25:42;;;;;;;14.53;13.13;;;24.70;78.00;;;;;;5074186;28;20545;-75
2021/06/25 12:28:19;;;;;;;15.53;14.30;;;24.70;76.90;;;;;;5074299;28;20176;-75
2021/06/25 12:30:59;;;;;;;16.13;14.53;;;24.70;79.40;;;;;;5074844;28;20427;-74
2021/06/25 12:33:30;;;;;;;16.00;14.43;;;24.70;78.00;;;;;;5074526;28;20406;-75
2021/06/25 12:35:57;;;;;;;15.87;14.37;;;24.80;76.00;;;;;;5074744;28;20399;-75
2021/06/25 12:38:24;;;;;;;16.50;15.10;;;24.90;77.20;;;;;;5073905;28;20403;-75
2021/06/25 12:41:03;;;;;;;15.40;14.20;;;25.00;77.60;;;;;;5074639;28;20457;-75
2021/06/25 12:43:41;;;;;;;14.93;13.43;;;25.10;75.50;;;;;;5056649;28;20811;-75
2021/06/25 12:46:18;;;;;;;14.40;13.10;;;25.20;78.40;;;;;;5073863;28;20476;-76
2021/06/25 12:48:45;;;;;;;14.53;13.30;;;25.40;75.50;;;;;;5074188;28;20399;-75
2021/06/25 12:51:17;;;;;;;15.90;13.00;;;25.50;71.90;;;;;;5073767;28;20488;-75
2021/06/25 12:53:46;;;;;;;14.50;13.43;;;25.60;75.30;;;;;;5074314;28;20400;-73
2021/06/25 12:56:19;;;;;;;14.50;13.20;;;25.70;76.30;;;;;;5073861;28;20404;-75